PWSweather.com
Personal Weather Stations
Station Observations
PENICUIKWS
PenicuikGB

PenicuikGB

Lat: 55.830932, Lon: -3.224533000000065

Elevation: 166

Station Type: Fine Offset

http://weather.penicuik.org

High Low Average
Temperature 40.8°F4.9°C 34.0°F1.1°C 35.9°F2.2°C
Dew Point 38.1°F3.4°C 29.0°F-1.7°C 31.5°F-0.3°C
Winds 6.7 mph 10.8 kmh 1.0 mph 1.6 kmh 4.0 mph SSW6.4 kmh SSW
Wind Gusts 14.5 mph23.3 kmh 2.2 mph3.5 kmh 6.0 mph9.7 kmh
Humidity 91% 76% 84%
Pressure 29.53 in1000.0 mb 29.23 in989.8 mb -
Precipitation 0.24 in6.1 mm - -
Hour Temp Dew Point Humidity Winds Wind Gusts Pressure Precip Precip Rate Daily Precip Total
12:00 AM 39.0°F3.9°C 36.6°F2.6°C 91% 4.0 mph SSW6.4 kmh SSW 8.3 mph13.4 kmh 29.53 in1000.0 mb 0.04 in1.0 mm 0.00 in0.0 mm 0.04 in1.0 mm
12:15 AM 39.0°F3.9°C 36.6°F2.6°C 91% 4.7 mph SSE7.6 kmh SSE 7.6 mph12.2 kmh 29.51 in999.3 mb 0.01 in0.3 mm 0.00 in0.0 mm 0.04 in1.0 mm
12:30 AM 39.0°F3.9°C 36.6°F2.6°C 91% 4.4 mph N7.1 kmh N 6.9 mph11.1 kmh 29.50 in999.0 mb 0.00 in0.0 mm 0.00 in0.0 mm 0.04 in1.0 mm
12:45 AM 39.9°F4.4°C 37.2°F2.9°C 90% 3.6 mph NNE5.8 kmh NNE 4.5 mph7.2 kmh 29.48 in998.3 mb 0.00 in0.0 mm 0.00 in0.0 mm 0.04 in1.0 mm
01:15 AM 40.8°F4.9°C 38.1°F3.4°C 90% 5.7 mph NW9.2 kmh NW 10.7 mph17.2 kmh 29.46 in997.6 mb 0.00 in0.0 mm 0.00 in0.0 mm 0.04 in1.0 mm
01:30 AM 40.8°F4.9°C 38.1°F3.4°C 90% 5.2 mph SW8.4 kmh SW 8.3 mph13.4 kmh 29.45 in997.3 mb 0.01 in0.3 mm 0.04 in1.0 mm 0.01 in0.3 mm
01:45 AM 40.8°F4.9°C 38.1°F3.4°C 90% 4.5 mph SE7.2 kmh SE 8.3 mph13.4 kmh 29.43 in996.6 mb 0.01 in0.3 mm 0.00 in0.0 mm 0.01 in0.3 mm
02:30 AM 39.7°F4.3°C 37.1°F2.8°C 90% 3.6 mph S5.8 kmh S 5.4 mph8.7 kmh 29.43 in996.6 mb 0.05 in1.3 mm 0.16 in4.1 mm 0.06 in1.5 mm
02:45 AM 39.0°F3.9°C 36.3°F2.4°C 90% 3.2 mph ESE5.1 kmh ESE 6.0 mph9.7 kmh 29.44 in997.0 mb 0.06 in1.5 mm 0.04 in1.0 mm 0.07 in1.8 mm
03:00 AM 38.5°F3.6°C 35.5°F1.9°C 89% 4.2 mph SE6.8 kmh SE 6.0 mph9.7 kmh 29.44 in997.0 mb 0.05 in1.3 mm 0.00 in0.0 mm 0.07 in1.8 mm
03:15 AM 37.4°F3.0°C 33.3°F0.7°C 85% 5.6 mph WSW9.0 kmh WSW 8.3 mph13.4 kmh 29.42 in996.3 mb 0.04 in1.0 mm 0.00 in0.0 mm 0.08 in2.0 mm
03:30 AM 36.9°F2.7°C 31.6°F-0.2°C 81% 3.3 mph W5.3 kmh W 4.5 mph7.2 kmh 29.40 in995.6 mb 0.02 in0.5 mm 0.00 in0.0 mm 0.08 in2.0 mm
03:45 AM 37.0°F2.8°C 32.1°F0.1°C 82% 6.7 mph SW10.8 kmh SW 9.8 mph15.8 kmh 29.40 in995.6 mb 0.01 in0.3 mm 0.00 in0.0 mm 0.08 in2.0 mm
04:00 AM 36.9°F2.7°C 31.9°F-0.1°C 82% 3.0 mph SW4.8 kmh SW 5.4 mph8.7 kmh 29.39 in995.3 mb 0.02 in0.5 mm 0.01 in0.3 mm 0.09 in2.3 mm
04:15 AM 36.9°F2.7°C 31.9°F-0.1°C 82% 4.1 mph SSE6.6 kmh SSE 9.8 mph15.8 kmh 29.39 in995.3 mb 0.01 in0.3 mm 0.00 in0.0 mm 0.09 in2.3 mm
04:30 AM 36.7°F2.6°C 32.0°F0.0°C 83% 5.4 mph SW8.7 kmh SW 6.9 mph11.1 kmh 29.39 in995.3 mb 0.01 in0.3 mm 0.00 in0.0 mm 0.09 in2.3 mm
05:00 AM 36.5°F2.5°C 31.5°F-0.3°C 82% 3.4 mph SSE5.5 kmh SSE 5.4 mph8.7 kmh 29.38 in994.9 mb 0.00 in0.0 mm 0.00 in0.0 mm 0.09 in2.3 mm
05:15 AM 35.8°F2.1°C 30.8°F-0.7°C 82% 4.2 mph SW6.8 kmh SW 6.9 mph11.1 kmh 29.38 in994.9 mb 0.00 in0.0 mm 0.00 in0.0 mm 0.09 in2.3 mm
05:45 AM 36.0°F2.2°C 30.4°F-0.9°C 80% 5.8 mph S9.3 kmh S 13.0 mph20.9 kmh 29.37 in994.6 mb 0.00 in0.0 mm 0.00 in0.0 mm 0.09 in2.3 mm
06:00 AM 35.6°F2.0°C 29.4°F-1.4°C 78% 4.7 mph S7.6 kmh S 7.6 mph12.2 kmh 29.37 in994.6 mb 0.00 in0.0 mm 0.00 in0.0 mm 0.09 in2.3 mm
06:15 AM 35.2°F1.8°C 29.4°F-1.4°C 79% 4.1 mph SSW6.6 kmh SSW 6.9 mph11.1 kmh 29.37 in994.6 mb 0.00 in0.0 mm 0.00 in0.0 mm 0.09 in2.3 mm
06:30 AM 35.2°F1.8°C 29.4°F-1.4°C 79% 3.9 mph S6.3 kmh S 7.6 mph12.2 kmh 29.36 in994.2 mb 0.00 in0.0 mm 0.00 in0.0 mm 0.09 in2.3 mm
06:45 AM 35.1°F1.7°C 29.5°F-1.4°C 80% 5.0 mph W8.0 kmh W 8.3 mph13.4 kmh 29.36 in994.2 mb 0.00 in0.0 mm 0.00 in0.0 mm 0.09 in2.3 mm
07:00 AM 35.2°F1.8°C 29.7°F-1.3°C 80% 3.8 mph S6.1 kmh S 7.6 mph12.2 kmh 29.38 in994.9 mb 0.00 in0.0 mm 0.00 in0.0 mm 0.09 in2.3 mm
07:45 AM 34.0°F1.1°C 29.4°F-1.4°C 83% 3.1 mph ESE5.0 kmh ESE 4.5 mph7.2 kmh 29.34 in993.6 mb 0.00 in0.0 mm 0.00 in0.0 mm 0.09 in2.3 mm
08:00 AM 34.2°F1.2°C 29.8°F-1.2°C 84% 3.5 mph S5.6 kmh S 4.5 mph7.2 kmh 29.34 in993.6 mb 0.00 in0.0 mm 0.00 in0.0 mm 0.09 in2.3 mm
08:15 AM 34.0°F1.1°C 29.7°F-1.3°C 84% 2.1 mph WSW3.4 kmh WSW 3.8 mph6.1 kmh 29.33 in993.2 mb 0.00 in0.0 mm 0.00 in0.0 mm 0.09 in2.3 mm
08:30 AM 34.2°F1.2°C 29.8°F-1.2°C 84% 4.1 mph SW6.6 kmh SW 7.6 mph12.2 kmh 29.34 in993.6 mb 0.00 in0.0 mm 0.00 in0.0 mm 0.09 in2.3 mm
08:45 AM 34.3°F1.3°C 30.0°F-1.1°C 84% 3.8 mph S6.1 kmh S 6.0 mph9.7 kmh 29.33 in993.2 mb 0.00 in0.0 mm 0.00 in0.0 mm 0.09 in2.3 mm
09:00 AM 34.5°F1.4°C 29.9°F-1.2°C 83% 4.3 mph SSE6.9 kmh SSE 6.0 mph9.7 kmh 29.32 in992.9 mb 0.00 in0.0 mm 0.00 in0.0 mm 0.09 in2.3 mm
09:15 AM 35.1°F1.7°C 30.4°F-0.9°C 83% 3.9 mph WSW6.3 kmh WSW 7.6 mph12.2 kmh 29.33 in993.2 mb 0.00 in0.0 mm 0.00 in0.0 mm 0.09 in2.3 mm
09:30 AM 36.3°F2.4°C 31.1°F-0.5°C 81% 5.2 mph SW8.4 kmh SW 9.8 mph15.8 kmh 29.32 in992.9 mb 0.00 in0.0 mm 0.00 in0.0 mm 0.09 in2.3 mm
09:45 AM 35.6°F2.0°C 30.1°F-1.1°C 80% 5.6 mph SSW9.0 kmh SSW 8.3 mph13.4 kmh 29.32 in992.9 mb 0.00 in0.0 mm 0.00 in0.0 mm 0.09 in2.3 mm
10:00 AM 36.1°F2.3°C 30.9°F-0.6°C 81% 4.1 mph SW6.6 kmh SW 6.9 mph11.1 kmh 29.32 in992.9 mb 0.00 in0.0 mm 0.00 in0.0 mm 0.09 in2.3 mm
10:15 AM 36.0°F2.2°C 30.7°F-0.7°C 81% 4.8 mph S7.7 kmh S 6.0 mph9.7 kmh 29.32 in992.9 mb 0.00 in0.0 mm 0.00 in0.0 mm 0.09 in2.3 mm
10:45 AM 35.2°F1.8°C 30.6°F-0.8°C 83% 4.6 mph SSE7.4 kmh SSE 6.9 mph11.1 kmh 29.32 in992.9 mb 0.00 in0.0 mm 0.00 in0.0 mm 0.09 in2.3 mm
11:00 AM 35.2°F1.8°C 30.6°F-0.8°C 83% 3.7 mph NNW6.0 kmh NNW 6.9 mph11.1 kmh 29.31 in992.6 mb 0.00 in0.0 mm 0.00 in0.0 mm 0.09 in2.3 mm
11:30 AM 38.5°F3.6°C 34.7°F1.5°C 86% 4.3 mph SW6.9 kmh SW 6.0 mph9.7 kmh 29.32 in992.9 mb 0.00 in0.0 mm 0.00 in0.0 mm 0.09 in2.3 mm
11:45 AM 40.8°F4.9°C 34.2°F1.2°C 77% 4.3 mph WNW6.9 kmh WNW 6.0 mph9.7 kmh 29.31 in992.6 mb 0.02 in0.5 mm 0.08 in2.0 mm 0.12 in3.0 mm
12:00 PM 38.1°F3.4°C 31.2°F-0.4°C 76% 5.2 mph W8.4 kmh W 11.4 mph18.3 kmh 29.31 in992.6 mb 0.05 in1.3 mm 0.04 in1.0 mm 0.14 in3.6 mm
12:15 PM 37.0°F2.8°C 30.2°F-1.0°C 76% 3.0 mph W4.8 kmh W 6.9 mph11.1 kmh 29.31 in992.6 mb 0.06 in1.5 mm 0.04 in1.0 mm 0.15 in3.8 mm
12:30 PM 36.9°F2.7°C 31.0°F-0.6°C 79% 6.7 mph WNW10.8 kmh WNW 14.5 mph23.3 kmh 29.29 in991.9 mb 0.06 in1.5 mm 0.00 in0.0 mm 0.17 in4.3 mm
12:45 PM 35.8°F2.1°C 29.9°F-1.2°C 79% 3.3 mph NNW5.3 kmh NNW 5.4 mph8.7 kmh 29.29 in991.9 mb 0.06 in1.5 mm 0.00 in0.0 mm 0.18 in4.6 mm
01:00 PM 35.6°F2.0°C 30.4°F-0.9°C 81% 3.8 mph W6.1 kmh W 7.6 mph12.2 kmh 29.31 in992.6 mb 0.05 in1.3 mm 0.00 in0.0 mm 0.19 in4.8 mm
01:15 PM 35.1°F1.7°C 30.4°F-0.9°C 83% 3.2 mph E5.1 kmh E 5.4 mph8.7 kmh 29.29 in991.9 mb 0.05 in1.3 mm 0.00 in0.0 mm 0.20 in5.1 mm
01:30 PM 35.4°F1.9°C 31.1°F-0.5°C 84% 3.6 mph SW5.8 kmh SW 6.9 mph11.1 kmh 29.29 in991.9 mb 0.05 in1.3 mm 0.00 in0.0 mm 0.21 in5.3 mm
01:45 PM 35.4°F1.9°C 31.1°F-0.5°C 84% 4.1 mph E6.6 kmh E 12.1 mph19.5 kmh 29.28 in991.5 mb 0.05 in1.3 mm 0.00 in0.0 mm 0.22 in5.6 mm
02:00 PM 35.6°F2.0°C 31.0°F-0.6°C 83% 3.2 mph SW5.1 kmh SW 4.5 mph7.2 kmh 29.28 in991.5 mb 0.04 in1.0 mm 0.00 in0.0 mm 0.22 in5.6 mm
02:15 PM 35.2°F1.8°C 30.6°F-0.8°C 83% 5.2 mph ESE8.4 kmh ESE 7.6 mph12.2 kmh 29.26 in990.9 mb 0.02 in0.5 mm 0.00 in0.0 mm 0.22 in5.6 mm
02:30 PM 35.6°F2.0°C 30.1°F-1.1°C 80% 5.0 mph SW8.0 kmh SW 7.6 mph12.2 kmh 29.26 in990.9 mb 0.01 in0.3 mm 0.00 in0.0 mm 0.22 in5.6 mm
02:45 PM 35.4°F1.9°C 29.6°F-1.3°C 79% 4.8 mph NW7.7 kmh NW 8.3 mph13.4 kmh 29.25 in990.5 mb 0.00 in0.0 mm 0.00 in0.0 mm 0.22 in5.6 mm
03:00 PM 34.9°F1.6°C 29.4°F-1.4°C 80% 3.3 mph NW5.3 kmh NW 6.9 mph11.1 kmh 29.26 in990.9 mb 0.00 in0.0 mm 0.00 in0.0 mm 0.22 in5.6 mm
03:15 PM 34.9°F1.6°C 29.7°F-1.3°C 81% 4.5 mph SSW7.2 kmh SSW 8.3 mph13.4 kmh 29.24 in990.2 mb 0.00 in0.0 mm 0.00 in0.0 mm 0.22 in5.6 mm
03:30 PM 35.1°F1.7°C 30.4°F-0.9°C 83% 3.3 mph SW5.3 kmh SW 4.5 mph7.2 kmh 29.25 in990.5 mb 0.00 in0.0 mm 0.00 in0.0 mm 0.22 in5.6 mm
04:00 PM 35.1°F1.7°C 30.7°F-0.7°C 84% 4.1 mph WSW6.6 kmh WSW 9.2 mph14.8 kmh 29.25 in990.5 mb 0.00 in0.0 mm 0.00 in0.0 mm 0.22 in5.6 mm
04:15 PM 35.1°F1.7°C 31.0°F-0.6°C 85% 4.6 mph SSW7.4 kmh SSW 6.0 mph9.7 kmh 29.25 in990.5 mb 0.01 in0.3 mm 0.04 in1.0 mm 0.24 in6.1 mm
04:30 PM 35.2°F1.8°C 31.2°F-0.4°C 85% 3.3 mph E5.3 kmh E 6.0 mph9.7 kmh 29.25 in990.5 mb 0.01 in0.3 mm 0.00 in0.0 mm 0.24 in6.1 mm
04:45 PM 35.1°F1.7°C 31.0°F-0.6°C 85% 3.5 mph SW5.6 kmh SW 6.9 mph11.1 kmh 29.24 in990.2 mb 0.01 in0.3 mm 0.00 in0.0 mm 0.24 in6.1 mm
05:00 PM 34.9°F1.6°C 30.8°F-0.7°C 85% 4.0 mph S6.4 kmh S 7.6 mph12.2 kmh 29.23 in989.8 mb 0.01 in0.3 mm 0.00 in0.0 mm 0.24 in6.1 mm
05:15 PM 34.9°F1.6°C 30.6°F-0.8°C 84% 4.3 mph SW6.9 kmh SW 6.9 mph11.1 kmh 29.23 in989.8 mb 0.00 in0.0 mm 0.00 in0.0 mm 0.24 in6.1 mm
05:45 PM 34.7°F1.5°C 30.4°F-0.9°C 84% 3.2 mph SW5.1 kmh SW 6.9 mph11.1 kmh 29.25 in990.5 mb 0.00 in0.0 mm 0.00 in0.0 mm 0.24 in6.1 mm
06:00 PM 35.1°F1.7°C 30.7°F-0.7°C 84% 3.4 mph S5.5 kmh S 5.4 mph8.7 kmh 29.26 in990.9 mb 0.00 in0.0 mm 0.00 in0.0 mm 0.24 in6.1 mm
06:15 PM 35.2°F1.8°C 30.9°F-0.6°C 84% 2.8 mph S4.5 kmh S 7.6 mph12.2 kmh 29.25 in990.5 mb 0.00 in0.0 mm 0.00 in0.0 mm 0.24 in6.1 mm
06:30 PM 34.3°F1.3°C 30.0°F-1.1°C 84% 1.3 mph WSW2.1 kmh WSW 3.8 mph6.1 kmh 29.26 in990.9 mb 0.00 in0.0 mm 0.00 in0.0 mm 0.24 in6.1 mm
06:45 PM 34.3°F1.3°C 30.0°F-1.1°C 84% 1.6 mph NW2.6 kmh NW 6.0 mph9.7 kmh 29.26 in990.9 mb 0.00 in0.0 mm 0.00 in0.0 mm 0.24 in6.1 mm
07:00 PM 34.7°F1.5°C 30.7°F-0.7°C 85% 2.5 mph W4.0 kmh W 5.4 mph8.7 kmh 29.27 in991.2 mb 0.00 in0.0 mm 0.00 in0.0 mm 0.24 in6.1 mm
07:30 PM 35.2°F1.8°C 31.5°F-0.3°C 86% 2.5 mph SW4.0 kmh SW 4.5 mph7.2 kmh 29.29 in991.9 mb 0.00 in0.0 mm 0.00 in0.0 mm 0.24 in6.1 mm
07:45 PM 34.9°F1.6°C 31.1°F-0.5°C 86% 1.4 mph W2.3 kmh W 3.1 mph5.0 kmh 29.29 in991.9 mb 0.00 in0.0 mm 0.00 in0.0 mm 0.24 in6.1 mm
08:00 PM 34.2°F1.2°C 30.4°F-0.9°C 86% 1.0 mph W1.6 kmh W 2.2 mph3.5 kmh 29.30 in992.2 mb 0.00 in0.0 mm 0.00 in0.0 mm 0.24 in6.1 mm
08:15 PM 34.2°F1.2°C 30.4°F-0.9°C 86% 1.9 mph NW3.1 kmh NW 4.5 mph7.2 kmh 29.30 in992.2 mb 0.00 in0.0 mm 0.00 in0.0 mm 0.24 in6.1 mm
08:30 PM 34.9°F1.6°C 31.4°F-0.3°C 87% 3.3 mph E5.3 kmh E 5.4 mph8.7 kmh 29.31 in992.6 mb 0.00 in0.0 mm 0.00 in0.0 mm 0.24 in6.1 mm
08:45 PM 35.1°F1.7°C 31.6°F-0.2°C 87% 2.5 mph WSW4.0 kmh WSW 3.8 mph6.1 kmh 29.31 in992.6 mb 0.00 in0.0 mm 0.00 in0.0 mm 0.24 in6.1 mm
09:00 PM 35.1°F1.7°C 31.6°F-0.2°C 87% 2.8 mph NE4.5 kmh NE 4.5 mph7.2 kmh 29.31 in992.6 mb 0.00 in0.0 mm 0.00 in0.0 mm 0.24 in6.1 mm
09:15 PM 35.1°F1.7°C 31.6°F-0.2°C 87% 2.7 mph E4.3 kmh E 3.8 mph6.1 kmh 29.33 in993.2 mb 0.00 in0.0 mm 0.00 in0.0 mm 0.24 in6.1 mm
09:30 PM 34.5°F1.4°C 30.8°F-0.7°C 86% 1.9 mph NNE3.1 kmh NNE 2.2 mph3.5 kmh 29.33 in993.2 mb 0.00 in0.0 mm 0.00 in0.0 mm 0.24 in6.1 mm
09:45 PM 34.2°F1.2°C 30.4°F-0.9°C 86% 1.4 mph SW2.3 kmh SW 3.1 mph5.0 kmh 29.33 in993.2 mb 0.00 in0.0 mm 0.00 in0.0 mm 0.24 in6.1 mm
10:15 PM 34.3°F1.3°C 30.6°F-0.8°C 86% 2.2 mph S3.5 kmh S 3.8 mph6.1 kmh 29.34 in993.6 mb 0.00 in0.0 mm 0.00 in0.0 mm 0.24 in6.1 mm
10:30 PM 34.7°F1.5°C 31.0°F-0.6°C 86% 2.3 mph S3.7 kmh S 3.8 mph6.1 kmh 29.34 in993.6 mb 0.00 in0.0 mm 0.00 in0.0 mm 0.24 in6.1 mm
10:45 PM 34.7°F1.5°C 30.7°F-0.7°C 85% 2.2 mph S3.5 kmh S 4.5 mph7.2 kmh 29.35 in993.9 mb 0.00 in0.0 mm 0.00 in0.0 mm 0.24 in6.1 mm
11:00 PM 34.7°F1.5°C 30.1°F-1.1°C 83% 2.7 mph S4.3 kmh S 3.8 mph6.1 kmh 29.35 in993.9 mb 0.00 in0.0 mm 0.00 in0.0 mm 0.24 in6.1 mm
11:15 PM 34.5°F1.4°C 29.6°F-1.3°C 82% 1.9 mph S3.1 kmh S 3.1 mph5.0 kmh 29.35 in993.9 mb 0.00 in0.0 mm 0.00 in0.0 mm 0.24 in6.1 mm
11:30 PM 34.9°F1.6°C 29.7°F-1.3°C 81% 2.9 mph S4.7 kmh S 4.5 mph7.2 kmh 29.35 in993.9 mb 0.00 in0.0 mm 0.00 in0.0 mm 0.24 in6.1 mm
11:45 PM 34.9°F1.6°C 29.0°F-1.7°C 79% 2.5 mph S4.0 kmh S 5.4 mph8.7 kmh 29.36 in994.2 mb 0.00 in0.0 mm 0.00 in0.0 mm 0.24 in6.1 mm